sensor_id;sensor_type;location;lat;lon;timestamp;P1;durP1;ratioP1;P2;durP2;ratioP2
38603;SDS011;24924;50.054;8.790;2023-03-25T00:01:18;3.23;;;1.60;;
38603;SDS011;24924;50.054;8.790;2023-03-25T00:03:50;2.90;;;1.40;;
38603;SDS011;24924;50.054;8.790;2023-03-25T00:06:17;3.30;;;1.60;;
38603;SDS011;24924;50.054;8.790;2023-03-25T00:08:44;3.10;;;1.60;;
38603;SDS011;24924;50.054;8.790;2023-03-25T00:11:10;4.97;;;1.80;;
38603;SDS011;24924;50.054;8.790;2023-03-25T00:13:36;3.47;;;1.87;;
38603;SDS011;24924;50.054;8.790;2023-03-25T00:16:04;4.38;;;1.83;;
38603;SDS011;24924;50.054;8.790;2023-03-25T00:18:31;4.82;;;1.60;;
38603;SDS011;24924;50.054;8.790;2023-03-25T00:21:02;3.42;;;1.60;;
38603;SDS011;24924;50.054;8.790;2023-03-25T00:23:30;3.20;;;1.50;;
38603;SDS011;24924;50.054;8.790;2023-03-25T00:25:56;3.20;;;1.60;;
38603;SDS011;24924;50.054;8.790;2023-03-25T00:28:26;4.55;;;1.52;;
38603;SDS011;24924;50.054;8.790;2023-03-25T00:30:57;2.97;;;1.52;;
38603;SDS011;24924;50.054;8.790;2023-03-25T00:33:29;4.10;;;1.60;;
38603;SDS011;24924;50.054;8.790;2023-03-25T00:35:56;3.78;;;1.80;;
38603;SDS011;24924;50.054;8.790;2023-03-25T00:38:26;3.17;;;1.60;;
38603;SDS011;24924;50.054;8.790;2023-03-25T00:40:58;3.20;;;1.67;;
38603;SDS011;24924;50.054;8.790;2023-03-25T00:43:50;4.55;;;1.80;;
38603;SDS011;24924;50.054;8.790;2023-03-25T00:46:18;3.20;;;1.50;;
38603;SDS011;24924;50.054;8.790;2023-03-25T00:48:45;4.97;;;1.80;;
38603;SDS011;24924;50.054;8.790;2023-03-25T00:51:11;3.43;;;1.50;;
38603;SDS011;24924;50.054;8.790;2023-03-25T00:53:39;3.83;;;1.83;;
38603;SDS011;24924;50.054;8.790;2023-03-25T00:56:05;4.13;;;1.70;;
38603;SDS011;24924;50.054;8.790;2023-03-25T00:58:31;4.65;;;1.58;;
38603;SDS011;24924;50.054;8.790;2023-03-25T01:00:57;4.10;;;1.60;;
38603;SDS011;24924;50.054;8.790;2023-03-25T01:03:24;3.85;;;1.55;;
38603;SDS011;24924;50.054;8.790;2023-03-25T01:05:50;3.50;;;1.50;;
38603;SDS011;24924;50.054;8.790;2023-03-25T01:08:19;4.55;;;1.70;;
38603;SDS011;24924;50.054;8.790;2023-03-25T01:10:50;4.55;;;1.70;;
38603;SDS011;24924;50.054;8.790;2023-03-25T01:13:18;5.23;;;1.50;;
38603;SDS011;24924;50.054;8.790;2023-03-25T01:15:45;3.40;;;1.63;;
38603;SDS011;24924;50.054;8.790;2023-03-25T01:18:11;5.88;;;1.77;;
38603;SDS011;24924;50.054;8.790;2023-03-25T01:20:38;3.50;;;1.70;;
38603;SDS011;24924;50.054;8.790;2023-03-25T01:23:04;3.90;;;1.50;;
38603;SDS011;24924;50.054;8.790;2023-03-25T01:25:30;3.60;;;1.50;;
38603;SDS011;24924;50.054;8.790;2023-03-25T01:27:57;4.07;;;1.60;;
38603;SDS011;24924;50.054;8.790;2023-03-25T01:30:24;4.35;;;1.90;;
38603;SDS011;24924;50.054;8.790;2023-03-25T01:32:50;3.60;;;1.60;;
38603;SDS011;24924;50.054;8.790;2023-03-25T01:35:16;4.47;;;1.83;;
38603;SDS011;24924;50.054;8.790;2023-03-25T01:37:42;4.70;;;1.80;;
38603;SDS011;24924;50.054;8.790;2023-03-25T01:40:09;4.32;;;1.80;;
38603;SDS011;24924;50.054;8.790;2023-03-25T01:42:41;4.80;;;1.95;;
38603;SDS011;24924;50.054;8.790;2023-03-25T01:45:18;3.75;;;1.80;;
38603;SDS011;24924;50.054;8.790;2023-03-25T01:47:48;4.85;;;1.80;;
38603;SDS011;24924;50.054;8.790;2023-03-25T01:50:18;5.57;;;1.77;;
38603;SDS011;24924;50.054;8.790;2023-03-25T01:52:46;7.88;;;1.90;;
38603;SDS011;24924;50.054;8.790;2023-03-25T01:55:16;4.00;;;2.00;;
38603;SDS011;24924;50.054;8.790;2023-03-25T01:57:44;5.38;;;1.92;;
38603;SDS011;24924;50.054;8.790;2023-03-25T02:00:12;4.22;;;1.90;;
38603;SDS011;24924;50.054;8.790;2023-03-25T02:02:40;4.33;;;1.97;;
38603;SDS011;24924;50.054;8.790;2023-03-25T02:07:34;8.15;;;2.00;;
38603;SDS011;24924;50.054;8.790;2023-03-25T02:10:07;7.40;;;2.15;;
38603;SDS011;24924;50.054;8.790;2023-03-25T02:12:35;4.95;;;2.25;;
38603;SDS011;24924;50.054;8.790;2023-03-25T02:15:02;5.00;;;2.03;;
38603;SDS011;24924;50.054;8.790;2023-03-25T02:20:57;6.78;;;2.40;;
38603;SDS011;24924;50.054;8.790;2023-03-25T02:29:51;6.70;;;2.03;;
38603;SDS011;24924;50.054;8.790;2023-03-25T02:32:38;6.20;;;2.10;;
38603;SDS011;24924;50.054;8.790;2023-03-25T02:40:47;5.45;;;1.90;;
38603;SDS011;24924;50.054;8.790;2023-03-25T02:43:30;5.00;;;2.03;;
38603;SDS011;24924;50.054;8.790;2023-03-25T02:46:05;4.57;;;2.97;;
38603;SDS011;24924;50.054;8.790;2023-03-25T02:48:36;6.95;;;2.58;;
38603;SDS011;24924;50.054;8.790;2023-03-25T02:51:11;6.30;;;2.15;;
38603;SDS011;24924;50.054;8.790;2023-03-25T02:53:42;5.30;;;2.15;;
38603;SDS011;24924;50.054;8.790;2023-03-25T02:56:13;5.50;;;1.93;;
38603;SDS011;24924;50.054;8.790;2023-03-25T02:58:41;7.65;;;2.20;;
38603;SDS011;24924;50.054;8.790;2023-03-25T03:01:09;4.95;;;2.45;;
38603;SDS011;24924;50.054;8.790;2023-03-25T03:03:39;6.82;;;2.00;;
38603;SDS011;24924;50.054;8.790;2023-03-25T03:06:06;5.45;;;2.13;;
38603;SDS011;24924;50.054;8.790;2023-03-25T03:08:56;4.93;;;2.10;;
38603;SDS011;24924;50.054;8.790;2023-03-25T03:19:50;4.40;;;2.10;;
38603;SDS011;24924;50.054;8.790;2023-03-25T03:30:17;4.45;;;1.90;;
38603;SDS011;24924;50.054;8.790;2023-03-25T03:32:53;3.75;;;1.80;;
38603;SDS011;24924;50.054;8.790;2023-03-25T03:35:27;5.47;;;2.00;;
38603;SDS011;24924;50.054;8.790;2023-03-25T03:38:00;3.95;;;2.10;;
38603;SDS011;24924;50.054;8.790;2023-03-25T03:40:29;3.30;;;1.80;;
38603;SDS011;24924;50.054;8.790;2023-03-25T03:42:57;4.63;;;1.98;;
38603;SDS011;24924;50.054;8.790;2023-03-25T03:45:28;4.32;;;2.00;;
38603;SDS011;24924;50.054;8.790;2023-03-25T03:47:59;4.43;;;2.03;;
38603;SDS011;24924;50.054;8.790;2023-03-25T03:53:10;5.50;;;1.85;;
38603;SDS011;24924;50.054;8.790;2023-03-25T03:55:42;3.40;;;1.75;;
38603;SDS011;24924;50.054;8.790;2023-03-25T03:58:35;3.92;;;2.10;;
38603;SDS011;24924;50.054;8.790;2023-03-25T04:01:07;3.40;;;1.73;;
38603;SDS011;24924;50.054;8.790;2023-03-25T04:03:40;3.47;;;2.00;;
38603;SDS011;24924;50.054;8.790;2023-03-25T04:06:18;4.22;;;2.05;;
38603;SDS011;24924;50.054;8.790;2023-03-25T04:08:58;3.80;;;1.90;;
38603;SDS011;24924;50.054;8.790;2023-03-25T04:11:39;4.05;;;1.90;;
38603;SDS011;24924;50.054;8.790;2023-03-25T04:14:09;3.90;;;1.90;;
38603;SDS011;24924;50.054;8.790;2023-03-25T04:16:36;4.03;;;1.83;;
38603;SDS011;24924;50.054;8.790;2023-03-25T04:19:05;3.97;;;2.30;;
38603;SDS011;24924;50.054;8.790;2023-03-25T04:21:31;3.92;;;1.90;;
38603;SDS011;24924;50.054;8.790;2023-03-25T04:23:58;4.30;;;1.85;;
38603;SDS011;24924;50.054;8.790;2023-03-25T04:26:28;5.60;;;1.97;;
38603;SDS011;24924;50.054;8.790;2023-03-25T04:28:58;5.03;;;1.83;;
38603;SDS011;24924;50.054;8.790;2023-03-25T04:31:28;3.30;;;1.90;;
38603;SDS011;24924;50.054;8.790;2023-03-25T04:33:58;5.65;;;2.20;;
38603;SDS011;24924;50.054;8.790;2023-03-25T04:36:25;4.45;;;2.10;;
38603;SDS011;24924;50.054;8.790;2023-03-25T04:38:57;3.80;;;2.13;;
38603;SDS011;24924;50.054;8.790;2023-03-25T04:41:24;5.45;;;2.00;;
38603;SDS011;24924;50.054;8.790;2023-03-25T04:43:50;4.57;;;1.95;;
38603;SDS011;24924;50.054;8.790;2023-03-25T04:46:16;4.85;;;2.20;;
38603;SDS011;24924;50.054;8.790;2023-03-25T04:48:42;5.30;;;2.15;;
38603;SDS011;24924;50.054;8.790;2023-03-25T04:51:13;6.53;;;2.30;;
38603;SDS011;24924;50.054;8.790;2023-03-25T04:53:40;5.20;;;2.45;;
38603;SDS011;24924;50.054;8.790;2023-03-25T04:56:08;6.53;;;2.20;;
38603;SDS011;24924;50.054;8.790;2023-03-25T04:58:40;5.40;;;2.42;;
38603;SDS011;24924;50.054;8.790;2023-03-25T05:01:06;3.70;;;2.03;;
38603;SDS011;24924;50.054;8.790;2023-03-25T05:03:40;8.70;;;2.37;;
38603;SDS011;24924;50.054;8.790;2023-03-25T05:06:07;4.60;;;2.10;;
38603;SDS011;24924;50.054;8.790;2023-03-25T05:08:32;7.60;;;2.50;;
38603;SDS011;24924;50.054;8.790;2023-03-25T05:10:59;4.80;;;2.00;;
38603;SDS011;24924;50.054;8.790;2023-03-25T05:13:25;5.10;;;2.57;;
38603;SDS011;24924;50.054;8.790;2023-03-25T05:15:52;4.85;;;2.28;;
38603;SDS011;24924;50.054;8.790;2023-03-25T05:18:18;4.03;;;2.10;;
38603;SDS011;24924;50.054;8.790;2023-03-25T05:20:45;4.20;;;2.13;;
38603;SDS011;24924;50.054;8.790;2023-03-25T05:23:15;4.17;;;2.20;;
38603;SDS011;24924;50.054;8.790;2023-03-25T05:25:48;5.03;;;2.33;;
38603;SDS011;24924;50.054;8.790;2023-03-25T05:28:15;3.78;;;2.08;;
38603;SDS011;24924;50.054;8.790;2023-03-25T05:30:42;4.72;;;2.13;;
38603;SDS011;24924;50.054;8.790;2023-03-25T05:33:11;4.53;;;2.30;;
38603;SDS011;24924;50.054;8.790;2023-03-25T05:35:39;4.00;;;2.20;;
38603;SDS011;24924;50.054;8.790;2023-03-25T05:38:05;7.93;;;2.22;;
38603;SDS011;24924;50.054;8.790;2023-03-25T05:40:32;5.40;;;2.30;;
38603;SDS011;24924;50.054;8.790;2023-03-25T05:43:00;5.10;;;2.10;;
38603;SDS011;24924;50.054;8.790;2023-03-25T05:45:27;4.00;;;2.33;;
38603;SDS011;24924;50.054;8.790;2023-03-25T05:47:54;6.37;;;2.40;;
38603;SDS011;24924;50.054;8.790;2023-03-25T05:50:21;5.97;;;2.28;;
38603;SDS011;24924;50.054;8.790;2023-03-25T05:52:47;5.15;;;2.28;;
38603;SDS011;24924;50.054;8.790;2023-03-25T05:55:15;6.70;;;2.40;;
38603;SDS011;24924;50.054;8.790;2023-03-25T05:57:42;6.80;;;2.45;;
38603;SDS011;24924;50.054;8.790;2023-03-25T06:00:09;7.40;;;2.33;;
38603;SDS011;24924;50.054;8.790;2023-03-25T06:02:36;4.05;;;2.22;;
38603;SDS011;24924;50.054;8.790;2023-03-25T06:05:04;5.30;;;2.70;;
38603;SDS011;24924;50.054;8.790;2023-03-25T06:07:31;3.22;;;1.90;;
38603;SDS011;24924;50.054;8.790;2023-03-25T06:09:57;3.88;;;2.35;;
38603;SDS011;24924;50.054;8.790;2023-03-25T06:12:23;4.40;;;2.00;;
38603;SDS011;24924;50.054;8.790;2023-03-25T06:14:51;5.85;;;2.40;;
38603;SDS011;24924;50.054;8.790;2023-03-25T06:17:21;4.22;;;2.10;;
38603;SDS011;24924;50.054;8.790;2023-03-25T06:19:47;5.72;;;2.47;;
38603;SDS011;24924;50.054;8.790;2023-03-25T06:22:13;6.03;;;2.00;;
38603;SDS011;24924;50.054;8.790;2023-03-25T06:24:41;4.50;;;2.47;;
38603;SDS011;24924;50.054;8.790;2023-03-25T06:27:09;3.92;;;2.17;;
38603;SDS011;24924;50.054;8.790;2023-03-25T06:29:37;4.20;;;2.42;;
38603;SDS011;24924;50.054;8.790;2023-03-25T06:32:06;7.30;;;2.78;;
38603;SDS011;24924;50.054;8.790;2023-03-25T06:34:32;5.97;;;2.67;;
38603;SDS011;24924;50.054;8.790;2023-03-25T06:36:58;4.57;;;2.10;;
38603;SDS011;24924;50.054;8.790;2023-03-25T06:39:25;3.33;;;2.20;;
38603;SDS011;24924;50.054;8.790;2023-03-25T06:41:54;4.20;;;1.80;;
38603;SDS011;24924;50.054;8.790;2023-03-25T06:44:27;4.13;;;2.00;;
38603;SDS011;24924;50.054;8.790;2023-03-25T06:47:20;3.90;;;2.03;;
38603;SDS011;24924;50.054;8.790;2023-03-25T06:49:50;5.40;;;2.60;;
38603;SDS011;24924;50.054;8.790;2023-03-25T06:52:16;3.83;;;2.17;;
38603;SDS011;24924;50.054;8.790;2023-03-25T06:54:42;3.80;;;2.17;;
38603;SDS011;24924;50.054;8.790;2023-03-25T06:57:08;5.93;;;2.40;;
38603;SDS011;24924;50.054;8.790;2023-03-25T06:59:34;6.95;;;3.33;;
38603;SDS011;24924;50.054;8.790;2023-03-25T07:02:01;5.83;;;2.57;;
38603;SDS011;24924;50.054;8.790;2023-03-25T07:04:28;4.85;;;2.38;;
38603;SDS011;24924;50.054;8.790;2023-03-25T07:06:54;7.07;;;2.45;;
38603;SDS011;24924;50.054;8.790;2023-03-25T07:09:20;6.00;;;2.35;;
38603;SDS011;24924;50.054;8.790;2023-03-25T07:11:46;5.82;;;2.40;;
38603;SDS011;24924;50.054;8.790;2023-03-25T07:14:12;7.03;;;2.67;;
38603;SDS011;24924;50.054;8.790;2023-03-25T07:16:38;5.88;;;2.60;;
38603;SDS011;24924;50.054;8.790;2023-03-25T07:19:04;7.05;;;2.28;;
38603;SDS011;24924;50.054;8.790;2023-03-25T07:21:30;4.07;;;2.00;;
38603;SDS011;24924;50.054;8.790;2023-03-25T07:23:56;6.80;;;2.22;;
38603;SDS011;24924;50.054;8.790;2023-03-25T07:26:22;7.63;;;2.45;;
38603;SDS011;24924;50.054;8.790;2023-03-25T07:28:48;6.82;;;2.30;;
38603;SDS011;24924;50.054;8.790;2023-03-25T07:31:14;6.43;;;2.45;;
38603;SDS011;24924;50.054;8.790;2023-03-25T07:33:41;6.93;;;3.13;;
38603;SDS011;24924;50.054;8.790;2023-03-25T07:36:08;5.13;;;2.25;;
38603;SDS011;24924;50.054;8.790;2023-03-25T07:38:36;5.53;;;2.40;;
38603;SDS011;24924;50.054;8.790;2023-03-25T07:41:09;6.28;;;2.00;;
38603;SDS011;24924;50.054;8.790;2023-03-25T07:43:40;7.65;;;2.40;;
38603;SDS011;24924;50.054;8.790;2023-03-25T07:46:28;6.30;;;2.03;;
38603;SDS011;24924;50.054;8.790;2023-03-25T07:48:54;8.00;;;2.33;;
38603;SDS011;24924;50.054;8.790;2023-03-25T07:51:21;6.68;;;2.40;;
38603;SDS011;24924;50.054;8.790;2023-03-25T07:53:47;8.10;;;2.45;;
38603;SDS011;24924;50.054;8.790;2023-03-25T07:56:13;8.77;;;2.30;;
38603;SDS011;24924;50.054;8.790;2023-03-25T07:58:40;8.75;;;2.45;;
38603;SDS011;24924;50.054;8.790;2023-03-25T08:01:06;7.22;;;2.35;;
38603;SDS011;24924;50.054;8.790;2023-03-25T08:03:33;6.70;;;2.22;;
38603;SDS011;24924;50.054;8.790;2023-03-25T08:06:02;15.38;;;2.75;;
38603;SDS011;24924;50.054;8.790;2023-03-25T08:08:27;7.10;;;2.70;;
38603;SDS011;24924;50.054;8.790;2023-03-25T08:10:56;6.95;;;2.28;;
38603;SDS011;24924;50.054;8.790;2023-03-25T08:13:22;7.72;;;2.22;;
38603;SDS011;24924;50.054;8.790;2023-03-25T08:15:48;4.55;;;1.90;;
38603;SDS011;24924;50.054;8.790;2023-03-25T08:18:14;8.83;;;2.87;;
38603;SDS011;24924;50.054;8.790;2023-03-25T08:20:40;9.68;;;3.03;;
38603;SDS011;24924;50.054;8.790;2023-03-25T08:23:06;9.23;;;2.33;;
38603;SDS011;24924;50.054;8.790;2023-03-25T08:25:35;16.13;;;2.60;;
38603;SDS011;24924;50.054;8.790;2023-03-25T08:28:02;10.33;;;2.77;;
38603;SDS011;24924;50.054;8.790;2023-03-25T08:30:29;7.22;;;2.70;;
38603;SDS011;24924;50.054;8.790;2023-03-25T08:32:55;8.45;;;3.03;;
38603;SDS011;24924;50.054;8.790;2023-03-25T08:35:22;9.02;;;2.58;;
38603;SDS011;24924;50.054;8.790;2023-03-25T08:37:48;9.30;;;2.70;;
38603;SDS011;24924;50.054;8.790;2023-03-25T08:40:14;7.13;;;2.53;;
38603;SDS011;24924;50.054;8.790;2023-03-25T08:42:44;11.13;;;2.75;;
38603;SDS011;24924;50.054;8.790;2023-03-25T08:45:10;11.10;;;2.55;;
38603;SDS011;24924;50.054;8.790;2023-03-25T08:47:37;7.60;;;2.45;;
38603;SDS011;24924;50.054;8.790;2023-03-25T08:50:03;11.10;;;2.75;;
38603;SDS011;24924;50.054;8.790;2023-03-25T08:52:30;10.23;;;2.60;;
38603;SDS011;24924;50.054;8.790;2023-03-25T08:54:55;9.93;;;2.47;;
38603;SDS011;24924;50.054;8.790;2023-03-25T08:57:22;7.38;;;2.45;;
38603;SDS011;24924;50.054;8.790;2023-03-25T08:59:47;9.93;;;2.90;;
38603;SDS011;24924;50.054;8.790;2023-03-25T09:02:14;7.32;;;2.30;;
38603;SDS011;24924;50.054;8.790;2023-03-25T09:04:40;10.70;;;3.20;;
38603;SDS011;24924;50.054;8.790;2023-03-25T09:07:07;7.22;;;2.50;;
38603;SDS011;24924;50.054;8.790;2023-03-25T09:09:35;12.55;;;2.58;;
38603;SDS011;24924;50.054;8.790;2023-03-25T09:12:04;7.45;;;2.30;;
38603;SDS011;24924;50.054;8.790;2023-03-25T09:14:30;7.95;;;2.53;;
38603;SDS011;24924;50.054;8.790;2023-03-25T09:16:56;10.10;;;2.50;;
38603;SDS011;24924;50.054;8.790;2023-03-25T09:19:23;13.57;;;3.00;;
38603;SDS011;24924;50.054;8.790;2023-03-25T09:21:50;10.65;;;3.53;;
38603;SDS011;24924;50.054;8.790;2023-03-25T09:24:16;11.98;;;2.33;;
38603;SDS011;24924;50.054;8.790;2023-03-25T09:26:41;6.53;;;2.70;;
38603;SDS011;24924;50.054;8.790;2023-03-25T09:29:08;9.52;;;2.90;;
38603;SDS011;24924;50.054;8.790;2023-03-25T09:31:33;7.50;;;2.40;;
38603;SDS011;24924;50.054;8.790;2023-03-25T09:34:00;9.85;;;2.47;;
38603;SDS011;24924;50.054;8.790;2023-03-25T09:36:26;8.60;;;2.58;;
38603;SDS011;24924;50.054;8.790;2023-03-25T09:38:52;6.30;;;2.20;;
38603;SDS011;24924;50.054;8.790;2023-03-25T09:41:29;7.45;;;2.38;;
38603;SDS011;24924;50.054;8.790;2023-03-25T09:44:12;7.70;;;2.10;;
38603;SDS011;24924;50.054;8.790;2023-03-25T09:46:41;7.70;;;2.60;;
38603;SDS011;24924;50.054;8.790;2023-03-25T09:49:18;7.57;;;2.60;;
38603;SDS011;24924;50.054;8.790;2023-03-25T09:51:48;10.82;;;2.47;;
38603;SDS011;24924;50.054;8.790;2023-03-25T09:54:21;7.35;;;2.30;;
38603;SDS011;24924;50.054;8.790;2023-03-25T09:56:48;8.40;;;2.00;;
38603;SDS011;24924;50.054;8.790;2023-03-25T09:59:19;8.55;;;2.17;;
38603;SDS011;24924;50.054;8.790;2023-03-25T10:04:39;6.13;;;2.13;;
38603;SDS011;24924;50.054;8.790;2023-03-25T10:07:40;6.75;;;2.30;;
38603;SDS011;24924;50.054;8.790;2023-03-25T10:10:18;3.50;;;1.60;;
38603;SDS011;24924;50.054;8.790;2023-03-25T10:12:52;5.00;;;1.60;;
38603;SDS011;24924;50.054;8.790;2023-03-25T10:15:29;4.25;;;1.83;;
38603;SDS011;24924;50.054;8.790;2023-03-25T10:24:27;3.27;;;1.50;;
38603;SDS011;24924;50.054;8.790;2023-03-25T10:27:01;3.35;;;1.50;;
38603;SDS011;24924;50.054;8.790;2023-03-25T10:29:35;4.30;;;1.55;;
38603;SDS011;24924;50.054;8.790;2023-03-25T10:32:31;4.15;;;1.80;;
38603;SDS011;24924;50.054;8.790;2023-03-25T10:35:03;4.50;;;1.90;;
38603;SDS011;24924;50.054;8.790;2023-03-25T10:37:32;2.90;;;1.50;;
38603;SDS011;24924;50.054;8.790;2023-03-25T10:40:14;4.28;;;1.63;;
38603;SDS011;24924;50.054;8.790;2023-03-25T10:42:49;3.35;;;1.60;;
38603;SDS011;24924;50.054;8.790;2023-03-25T10:45:28;5.03;;;1.80;;
38603;SDS011;24924;50.054;8.790;2023-03-25T10:47:58;3.85;;;1.80;;
38603;SDS011;24924;50.054;8.790;2023-03-25T10:50:31;4.80;;;1.60;;
38603;SDS011;24924;50.054;8.790;2023-03-25T10:52:57;3.63;;;1.60;;
38603;SDS011;24924;50.054;8.790;2023-03-25T10:55:24;3.30;;;1.50;;
38603;SDS011;24924;50.054;8.790;2023-03-25T10:57:54;3.00;;;1.47;;
38603;SDS011;24924;50.054;8.790;2023-03-25T11:00:21;4.60;;;1.55;;
38603;SDS011;24924;50.054;8.790;2023-03-25T11:02:50;4.35;;;1.48;;
38603;SDS011;24924;50.054;8.790;2023-03-25T11:05:17;4.00;;;1.60;;
38603;SDS011;24924;50.054;8.790;2023-03-25T11:07:47;5.32;;;1.70;;
38603;SDS011;24924;50.054;8.790;2023-03-25T11:12:51;6.35;;;1.80;;
38603;SDS011;24924;50.054;8.790;2023-03-25T11:15:25;5.50;;;1.80;;
38603;SDS011;24924;50.054;8.790;2023-03-25T11:17:58;6.50;;;1.70;;
38603;SDS011;24924;50.054;8.790;2023-03-25T11:20:30;4.63;;;1.85;;
38603;SDS011;24924;50.054;8.790;2023-03-25T11:23:04;4.43;;;1.30;;
38603;SDS011;24924;50.054;8.790;2023-03-25T11:25:35;6.22;;;1.50;;
38603;SDS011;24924;50.054;8.790;2023-03-25T11:28:08;5.35;;;1.83;;
38603;SDS011;24924;50.054;8.790;2023-03-25T11:33:44;3.67;;;1.60;;
38603;SDS011;24924;50.054;8.790;2023-03-25T11:36:12;6.97;;;1.80;;
38603;SDS011;24924;50.054;8.790;2023-03-25T11:38:49;5.68;;;1.50;;
38603;SDS011;24924;50.054;8.790;2023-03-25T11:41:20;4.65;;;1.70;;
38603;SDS011;24924;50.054;8.790;2023-03-25T11:43:47;5.55;;;1.58;;
38603;SDS011;24924;50.054;8.790;2023-03-25T11:46:15;6.60;;;1.73;;
38603;SDS011;24924;50.054;8.790;2023-03-25T11:48:43;5.77;;;1.60;;
38603;SDS011;24924;50.054;8.790;2023-03-25T11:51:27;4.13;;;1.60;;
38603;SDS011;24924;50.054;8.790;2023-03-25T11:53:58;5.25;;;1.70;;
38603;SDS011;24924;50.054;8.790;2023-03-25T11:56:39;5.03;;;1.75;;
38603;SDS011;24924;50.054;8.790;2023-03-25T12:02:01;6.13;;;1.93;;
38603;SDS011;24924;50.054;8.790;2023-03-25T12:04:28;6.05;;;1.60;;
38603;SDS011;24924;50.054;8.790;2023-03-25T12:06:56;4.13;;;1.70;;
38603;SDS011;24924;50.054;8.790;2023-03-25T12:09:28;5.55;;;1.92;;
38603;SDS011;24924;50.054;8.790;2023-03-25T12:17:50;5.18;;;1.65;;
38603;SDS011;24924;50.054;8.790;2023-03-25T12:20:53;4.82;;;1.40;;
38603;SDS011;24924;50.054;8.790;2023-03-25T12:23:28;4.05;;;1.58;;
38603;SDS011;24924;50.054;8.790;2023-03-25T12:29:47;4.80;;;1.47;;
38603;SDS011;24924;50.054;8.790;2023-03-25T12:54:10;4.97;;;1.50;;
38603;SDS011;24924;50.054;8.790;2023-03-25T13:05:17;3.22;;;1.13;;
38603;SDS011;24924;50.054;8.790;2023-03-25T13:08:26;4.72;;;1.60;;
38603;SDS011;24924;50.054;8.790;2023-03-25T13:11:02;4.60;;;1.40;;
38603;SDS011;24924;50.054;8.790;2023-03-25T13:13:32;4.30;;;1.50;;
38603;SDS011;24924;50.054;8.790;2023-03-25T13:16:10;3.88;;;1.40;;
38603;SDS011;24924;50.054;8.790;2023-03-25T13:21:34;4.07;;;1.85;;
38603;SDS011;24924;50.054;8.790;2023-03-25T13:24:06;4.67;;;1.77;;
38603;SDS011;24924;50.054;8.790;2023-03-25T13:26:38;5.85;;;2.05;;
38603;SDS011;24924;50.054;8.790;2023-03-25T13:29:24;3.67;;;1.50;;
38603;SDS011;24924;50.054;8.790;2023-03-25T13:31:59;5.53;;;1.60;;
38603;SDS011;24924;50.054;8.790;2023-03-25T13:39:53;3.20;;;1.23;;
38603;SDS011;24924;50.054;8.790;2023-03-25T13:42:45;3.47;;;1.10;;
38603;SDS011;24924;50.054;8.790;2023-03-25T13:45:22;4.90;;;1.30;;
38603;SDS011;24924;50.054;8.790;2023-03-25T13:50:36;4.37;;;1.40;;
38603;SDS011;24924;50.054;8.790;2023-03-25T13:53:11;4.72;;;1.30;;
38603;SDS011;24924;50.054;8.790;2023-03-25T13:56:01;4.25;;;1.40;;
38603;SDS011;24924;50.054;8.790;2023-03-25T13:58:41;3.33;;;1.17;;
38603;SDS011;24924;50.054;8.790;2023-03-25T14:12:33;5.22;;;1.88;;
38603;SDS011;24924;50.054;8.790;2023-03-25T14:15:05;4.22;;;1.65;;
38603;SDS011;24924;50.054;8.790;2023-03-25T14:17:37;3.70;;;1.30;;
38603;SDS011;24924;50.054;8.790;2023-03-25T14:20:05;4.40;;;1.40;;
38603;SDS011;24924;50.054;8.790;2023-03-25T14:22:37;5.40;;;1.42;;
38603;SDS011;24924;50.054;8.790;2023-03-25T14:25:13;3.83;;;1.33;;
38603;SDS011;24924;50.054;8.790;2023-03-25T14:27:51;4.72;;;1.30;;
38603;SDS011;24924;50.054;8.790;2023-03-25T14:30:24;4.37;;;1.17;;
38603;SDS011;24924;50.054;8.790;2023-03-25T14:32:53;3.90;;;1.30;;
38603;SDS011;24924;50.054;8.790;2023-03-25T14:48:52;6.85;;;1.48;;
38603;SDS011;24924;50.054;8.790;2023-03-25T14:57:23;3.97;;;1.40;;
38603;SDS011;24924;50.054;8.790;2023-03-25T14:59:50;4.45;;;1.73;;
38603;SDS011;24924;50.054;8.790;2023-03-25T15:02:25;5.32;;;1.35;;
38603;SDS011;24924;50.054;8.790;2023-03-25T15:04:55;4.32;;;1.50;;
38603;SDS011;24924;50.054;8.790;2023-03-25T15:10:30;3.83;;;1.40;;
38603;SDS011;24924;50.054;8.790;2023-03-25T15:18:10;4.22;;;1.40;;
38603;SDS011;24924;50.054;8.790;2023-03-25T15:20:36;4.13;;;1.25;;
38603;SDS011;24924;50.054;8.790;2023-03-25T15:25:47;4.00;;;1.40;;
38603;SDS011;24924;50.054;8.790;2023-03-25T15:28:19;4.85;;;1.83;;
38603;SDS011;24924;50.054;8.790;2023-03-25T15:31:12;6.30;;;1.50;;
38603;SDS011;24924;50.054;8.790;2023-03-25T15:45:07;5.28;;;1.70;;
38603;SDS011;24924;50.054;8.790;2023-03-25T15:51:04;4.97;;;1.48;;
38603;SDS011;24924;50.054;8.790;2023-03-25T15:56:43;4.75;;;1.30;;
38603;SDS011;24924;50.054;8.790;2023-03-25T16:01:54;4.10;;;1.30;;
38603;SDS011;24924;50.054;8.790;2023-03-25T16:06:52;5.63;;;1.50;;
38603;SDS011;24924;50.054;8.790;2023-03-25T16:09:22;5.32;;;1.65;;
38603;SDS011;24924;50.054;8.790;2023-03-25T16:11:50;5.22;;;1.50;;
38603;SDS011;24924;50.054;8.790;2023-03-25T16:14:17;5.57;;;1.80;;
38603;SDS011;24924;50.054;8.790;2023-03-25T16:16:47;3.78;;;1.30;;
38603;SDS011;24924;50.054;8.790;2023-03-25T16:19:22;4.47;;;1.35;;
38603;SDS011;24924;50.054;8.790;2023-03-25T16:21:50;6.03;;;1.50;;
38603;SDS011;24924;50.054;8.790;2023-03-25T16:24:19;6.22;;;1.73;;
38603;SDS011;24924;50.054;8.790;2023-03-25T16:26:51;5.60;;;2.13;;
38603;SDS011;24924;50.054;8.790;2023-03-25T16:29:19;6.70;;;1.40;;
38603;SDS011;24924;50.054;8.790;2023-03-25T16:31:51;5.90;;;1.70;;
38603;SDS011;24924;50.054;8.790;2023-03-25T16:34:22;5.72;;;1.58;;
38603;SDS011;24924;50.054;8.790;2023-03-25T16:36:49;5.00;;;1.40;;
38603;SDS011;24924;50.054;8.790;2023-03-25T16:39:16;5.27;;;1.50;;
38603;SDS011;24924;50.054;8.790;2023-03-25T16:41:46;4.47;;;1.55;;
38603;SDS011;24924;50.054;8.790;2023-03-25T16:44:21;4.60;;;1.45;;
38603;SDS011;24924;50.054;8.790;2023-03-25T16:46:48;5.10;;;1.60;;
38603;SDS011;24924;50.054;8.790;2023-03-25T16:49:19;4.22;;;1.65;;
38603;SDS011;24924;50.054;8.790;2023-03-25T16:51:51;5.80;;;1.73;;
38603;SDS011;24924;50.054;8.790;2023-03-25T16:54:27;4.57;;;1.65;;
38603;SDS011;24924;50.054;8.790;2023-03-25T16:57:06;7.70;;;1.83;;
38603;SDS011;24924;50.054;8.790;2023-03-25T16:59:34;5.32;;;1.55;;
38603;SDS011;24924;50.054;8.790;2023-03-25T17:02:02;4.63;;;1.50;;
38603;SDS011;24924;50.054;8.790;2023-03-25T17:04:38;3.80;;;1.10;;
38603;SDS011;24924;50.054;8.790;2023-03-25T17:07:11;6.05;;;1.58;;
38603;SDS011;24924;50.054;8.790;2023-03-25T17:10:04;5.35;;;1.52;;
38603;SDS011;24924;50.054;8.790;2023-03-25T17:12:47;5.82;;;1.60;;
38603;SDS011;24924;50.054;8.790;2023-03-25T17:15:41;4.82;;;1.52;;
38603;SDS011;24924;50.054;8.790;2023-03-25T17:18:08;6.53;;;1.70;;
38603;SDS011;24924;50.054;8.790;2023-03-25T17:20:39;5.18;;;1.65;;
38603;SDS011;24924;50.054;8.790;2023-03-25T17:25:58;4.27;;;1.40;;
38603;SDS011;24924;50.054;8.790;2023-03-25T17:28:37;3.85;;;1.38;;
38603;SDS011;24924;50.054;8.790;2023-03-25T17:31:53;4.50;;;1.50;;
38603;SDS011;24924;50.054;8.790;2023-03-25T17:36:37;4.22;;;1.50;;
38603;SDS011;24924;50.054;8.790;2023-03-25T17:39:28;5.87;;;1.50;;
38603;SDS011;24924;50.054;8.790;2023-03-25T17:42:00;4.55;;;1.48;;
38603;SDS011;24924;50.054;8.790;2023-03-25T17:44:35;4.93;;;1.70;;
38603;SDS011;24924;50.054;8.790;2023-03-25T17:47:11;5.43;;;1.73;;
38603;SDS011;24924;50.054;8.790;2023-03-25T17:49:40;4.18;;;1.70;;
38603;SDS011;24924;50.054;8.790;2023-03-25T17:52:06;5.87;;;1.57;;
38603;SDS011;24924;50.054;8.790;2023-03-25T17:54:33;6.03;;;1.98;;
38603;SDS011;24924;50.054;8.790;2023-03-25T17:56:59;5.13;;;1.70;;
38603;SDS011;24924;50.054;8.790;2023-03-25T17:59:27;5.15;;;1.60;;
38603;SDS011;24924;50.054;8.790;2023-03-25T18:01:53;5.05;;;2.00;;
38603;SDS011;24924;50.054;8.790;2023-03-25T18:04:19;6.67;;;1.80;;